createdAt,value
2023-09-24T00:01:43.006Z,10.73
2023-09-24T00:04:16.347Z,10.61
2023-09-24T00:06:49.619Z,10.61
2023-09-24T00:09:25.041Z,10.67
2023-09-24T00:11:58.658Z,10.67
2023-09-24T00:14:32.294Z,10.55
2023-09-24T00:17:06.948Z,10.61
2023-09-24T00:19:40.686Z,10.64
2023-09-24T00:22:14.571Z,10.60
2023-09-24T00:24:48.136Z,10.61
2023-09-24T00:27:21.342Z,10.59
2023-09-24T00:29:54.544Z,10.66
2023-09-24T00:32:29.130Z,10.61
2023-09-24T00:35:02.317Z,10.63
2023-09-24T00:37:35.659Z,10.57
2023-09-24T00:40:12.307Z,10.57
2023-09-24T00:42:46.171Z,10.63
2023-09-24T00:45:19.374Z,10.57
2023-09-24T00:47:55.877Z,10.52
2023-09-24T00:50:34.319Z,10.46
2023-09-24T00:53:10.967Z,10.47
2023-09-24T00:55:44.631Z,10.45
2023-09-24T00:58:18.625Z,10.36
2023-09-24T01:00:53.875Z,10.26
2023-09-24T01:03:29.436Z,10.19
2023-09-24T01:06:02.749Z,10.18
2023-09-24T01:08:36.182Z,10.15
2023-09-24T01:11:09.625Z,10.15
2023-09-24T01:13:44.549Z,10.08
2023-09-24T01:16:19.251Z,10.01
2023-09-24T01:18:54.731Z,10.02
2023-09-24T01:21:30.426Z,10.03
2023-09-24T01:24:08.133Z,10.05
2023-09-24T01:26:41.537Z,10.01
2023-09-24T01:29:15.312Z,10.03
2023-09-24T01:31:48.525Z,10.01
2023-09-24T01:34:21.755Z,10.01
2023-09-24T01:36:55.699Z,9.95
2023-09-24T01:39:33.165Z,10.02
2023-09-24T01:42:08.729Z,9.98
2023-09-24T01:44:42.846Z,10.02
2023-09-24T01:47:16.076Z,10.02
2023-09-24T01:49:50.744Z,9.98
2023-09-24T01:52:23.996Z,9.92
2023-09-24T01:54:58.538Z,9.85
2023-09-24T01:57:31.810Z,9.81
2023-09-24T02:00:09.830Z,9.92
2023-09-24T02:02:43.385Z,9.89
2023-09-24T02:05:18.018Z,9.86
2023-09-24T02:07:52.615Z,9.77
2023-09-24T02:10:28.491Z,9.74
2023-09-24T02:13:02.673Z,9.75
2023-09-24T02:15:35.886Z,9.75
2023-09-24T02:18:11.402Z,9.74
2023-09-24T02:20:49.773Z,9.75
2023-09-24T02:23:23.735Z,9.73
2023-09-24T02:25:58.544Z,9.74
2023-09-24T02:28:31.699Z,9.67
2023-09-24T02:31:05.644Z,9.70
2023-09-24T02:33:38.946Z,9.82
2023-09-24T02:36:12.325Z,9.79
2023-09-24T02:38:46.005Z,9.68
2023-09-24T02:41:20.576Z,9.67
2023-09-24T02:43:56.063Z,9.73
2023-09-24T02:46:29.330Z,9.68
2023-09-24T02:49:02.634Z,9.59
2023-09-24T02:51:37.103Z,9.54
2023-09-24T02:54:10.600Z,9.59
2023-09-24T02:56:45.244Z,9.62
2023-09-24T02:59:18.420Z,9.50
2023-09-24T03:01:54.419Z,9.40
2023-09-24T03:04:28.854Z,9.44
2023-09-24T03:07:02.130Z,9.38
2023-09-24T03:09:35.294Z,9.41
2023-09-24T03:12:09.926Z,9.50
2023-09-24T03:14:43.066Z,9.55
2023-09-24T03:17:16.235Z,9.51
2023-09-24T03:19:49.338Z,9.45
2023-09-24T03:22:22.923Z,9.41
2023-09-24T03:24:56.042Z,9.31
2023-09-24T03:27:30.531Z,9.31
2023-09-24T03:30:04.485Z,9.34
2023-09-24T03:32:39.098Z,9.27
2023-09-24T03:35:14.628Z,9.28
2023-09-24T03:37:53.899Z,9.31
2023-09-24T03:40:29.214Z,9.31
2023-09-24T03:43:04.172Z,9.33
2023-09-24T03:45:37.467Z,9.33
2023-09-24T03:48:10.733Z,9.37
2023-09-24T03:50:44.236Z,9.35
2023-09-24T03:53:19.291Z,9.31
2023-09-24T03:55:53.992Z,9.27
2023-09-24T03:58:28.476Z,9.21
2023-09-24T04:01:10.671Z,9.30
2023-09-24T04:03:44.240Z,9.24
2023-09-24T04:06:18.345Z,9.21
2023-09-24T04:08:51.551Z,9.33
2023-09-24T04:11:28.694Z,9.33
2023-09-24T04:14:04.062Z,9.34
2023-09-24T04:16:37.272Z,9.31
2023-09-24T04:19:10.531Z,9.21
2023-09-24T04:21:43.682Z,9.23
2023-09-24T04:24:16.898Z,9.23
2023-09-24T04:26:50.232Z,9.20
2023-09-24T04:29:24.838Z,9.17
2023-09-24T04:31:57.909Z,9.14
2023-09-24T04:34:31.114Z,9.07
2023-09-24T04:37:06.496Z,9.04
2023-09-24T04:39:39.792Z,9.07
2023-09-24T04:42:12.955Z,9.19
2023-09-24T04:44:47.484Z,9.13
2023-09-24T04:47:20.587Z,9.02
2023-09-24T04:49:53.856Z,8.97
2023-09-24T04:52:27.032Z,9.07
2023-09-24T04:55:00.226Z,8.96
2023-09-24T04:57:33.473Z,8.97
2023-09-24T05:00:09.523Z,9.04
2023-09-24T05:02:42.835Z,8.96
2023-09-24T05:05:16.778Z,8.86
2023-09-24T05:07:52.091Z,8.84
2023-09-24T05:10:25.285Z,8.83
2023-09-24T05:12:58.397Z,8.90
2023-09-24T05:15:33.009Z,8.99
2023-09-24T05:18:06.441Z,8.94
2023-09-24T05:20:39.812Z,9.06
2023-09-24T05:23:15.268Z,9.09
2023-09-24T05:25:48.350Z,9.10
2023-09-24T05:28:21.450Z,9.11
2023-09-24T05:30:58.336Z,9.10
2023-09-24T05:33:31.795Z,9.13
2023-09-24T05:36:05.802Z,9.11
2023-09-24T05:38:39.120Z,9.04
2023-09-24T05:41:12.360Z,9.02
2023-09-24T05:43:48.276Z,9.17
2023-09-24T05:46:23.312Z,9.17
2023-09-24T05:48:56.542Z,9.14
2023-09-24T05:51:29.805Z,9.26
2023-09-24T05:54:03.355Z,9.35
2023-09-24T05:56:36.586Z,9.27
2023-09-24T05:59:09.892Z,9.26
2023-09-24T06:01:44.526Z,9.30
2023-09-24T06:04:18.194Z,9.38
2023-09-24T06:06:51.633Z,9.41
2023-09-24T06:09:24.814Z,9.47
2023-09-24T06:11:57.996Z,9.50
2023-09-24T06:14:32.368Z,9.62
2023-09-24T06:17:07.142Z,9.74
2023-09-24T06:19:40.456Z,9.89
2023-09-24T06:22:13.600Z,9.99
2023-09-24T06:24:46.778Z,10.01
2023-09-24T06:27:20.462Z,10.19
2023-09-24T06:29:53.887Z,10.39
2023-09-24T06:32:30.444Z,10.42
2023-09-24T06:35:04.526Z,10.50
2023-09-24T06:37:37.648Z,10.61
2023-09-24T06:40:12.134Z,10.69
2023-09-24T06:42:46.952Z,10.76
2023-09-24T06:45:20.133Z,11.04
2023-09-24T06:47:54.865Z,11.06
2023-09-24T06:50:28.278Z,11.24
2023-09-24T06:53:01.407Z,11.39
2023-09-24T06:55:41.111Z,11.58
2023-09-24T06:58:15.695Z,11.68
2023-09-24T07:00:48.812Z,11.78
2023-09-24T07:03:23.475Z,11.95
2023-09-24T07:05:56.811Z,12.09
2023-09-24T07:08:30.043Z,12.25
2023-09-24T07:11:29.202Z,12.41
2023-09-24T07:14:03.305Z,12.57
2023-09-24T07:16:36.953Z,12.76
2023-09-24T07:19:11.638Z,12.97
2023-09-24T07:21:50.229Z,13.09
2023-09-24T07:24:25.698Z,13.26
2023-09-24T07:27:03.968Z,13.41
2023-09-24T07:29:37.320Z,13.56
2023-09-24T07:32:10.536Z,13.55
2023-09-24T07:34:47.650Z,13.61
2023-09-24T07:37:20.843Z,13.66
2023-09-24T07:39:53.975Z,13.76
2023-09-24T07:42:27.113Z,13.94
2023-09-24T07:45:00.366Z,14.04
2023-09-24T07:47:33.619Z,14.14
2023-09-24T07:50:09.088Z,14.37
2023-09-24T07:52:44.282Z,14.48
2023-09-24T07:55:17.612Z,14.71
2023-09-24T07:57:50.881Z,14.77
2023-09-24T08:00:24.033Z,14.88
2023-09-24T08:02:57.571Z,15.16
2023-09-24T08:05:33.763Z,15.29
2023-09-24T08:08:07.523Z,15.39
2023-09-24T08:10:40.761Z,15.50
2023-09-24T08:13:13.955Z,15.59
2023-09-24T08:15:47.469Z,15.80
2023-09-24T08:18:23.118Z,15.87
2023-09-24T08:20:59.185Z,15.98
2023-09-24T08:23:32.473Z,16.14
2023-09-24T08:26:05.691Z,16.35
2023-09-24T08:28:38.963Z,16.49
2023-09-24T08:31:12.265Z,16.55
2023-09-24T08:33:45.578Z,16.68
2023-09-24T08:36:20.404Z,16.73
2023-09-24T08:38:53.604Z,16.90
2023-09-24T08:41:27.071Z,17.09
2023-09-24T08:44:06.307Z,17.20
2023-09-24T08:46:40.427Z,17.29
2023-09-24T08:49:15.717Z,17.34
2023-09-24T08:51:51.782Z,17.46
2023-09-24T08:54:26.624Z,17.61
2023-09-24T08:56:59.771Z,17.60
2023-09-24T08:59:33.005Z,17.85
2023-09-24T09:02:08.446Z,17.85
2023-09-24T09:04:49.507Z,17.88
2023-09-24T09:07:24.126Z,17.94
2023-09-24T09:10:00.879Z,18.04
2023-09-24T09:12:34.066Z,18.08
2023-09-24T09:15:18.274Z,18.15
2023-09-24T09:17:51.523Z,18.33
2023-09-24T09:20:42.096Z,18.42
2023-09-24T09:23:17.489Z,18.49
2023-09-24T09:25:53.402Z,18.94
2023-09-24T09:28:27.886Z,19.47
2023-09-24T09:31:06.999Z,19.98
2023-09-24T09:33:42.771Z,20.30
2023-09-24T09:36:25.880Z,20.56
2023-09-24T09:39:00.385Z,20.47
2023-09-24T09:41:35.635Z,20.62
2023-09-24T09:44:09.851Z,20.76
2023-09-24T09:46:48.352Z,20.83
2023-09-24T09:49:25.831Z,20.93
2023-09-24T09:52:02.265Z,21.01
2023-09-24T09:54:41.605Z,21.03
2023-09-24T09:57:15.703Z,21.27
2023-09-24T09:59:49.576Z,21.25
2023-09-24T10:02:22.932Z,21.32
2023-09-24T10:04:58.530Z,21.37
2023-09-24T10:07:31.892Z,21.46
2023-09-24T10:10:43.657Z,21.51
2023-09-24T10:13:51.727Z,21.66
2023-09-24T10:16:40.169Z,21.25
2023-09-24T10:19:15.168Z,21.10
2023-09-24T10:21:48.934Z,21.28
2023-09-24T10:24:49.634Z,21.49
2023-09-24T10:27:27.141Z,21.74
2023-09-24T10:30:08.838Z,21.85
2023-09-24T10:32:46.177Z,21.81
2023-09-24T10:35:20.589Z,22.24
2023-09-24T10:38:05.756Z,22.63
2023-09-24T10:41:05.420Z,22.77
2023-09-24T10:43:39.940Z,22.87
2023-09-24T10:46:29.060Z,22.61
2023-09-24T10:49:04.119Z,22.65
2023-09-24T10:51:37.310Z,23.10
2023-09-24T10:54:15.580Z,22.95
2023-09-24T10:56:49.730Z,23.18
2023-09-24T10:59:35.870Z,22.65
2023-09-24T11:02:21.436Z,22.84
2023-09-24T11:04:55.586Z,22.98
2023-09-24T11:07:28.790Z,23.39
2023-09-24T11:10:01.956Z,23.69
2023-09-24T11:12:35.118Z,23.87
2023-09-24T11:15:16.179Z,24.03
2023-09-24T11:17:51.378Z,24.09
2023-09-24T11:20:25.959Z,23.72
2023-09-24T11:23:00.464Z,23.61
2023-09-24T11:25:33.785Z,23.76
2023-09-24T11:28:07.826Z,23.90
2023-09-24T11:30:44.594Z,24.20
2023-09-24T11:33:19.819Z,24.51
2023-09-24T11:35:55.639Z,24.36
2023-09-24T11:38:31.257Z,24.20
2023-09-24T11:41:09.722Z,24.64
2023-09-24T11:43:43.237Z,24.87
2023-09-24T11:46:23.573Z,24.91
2023-09-24T11:49:00.015Z,24.91
2023-09-24T11:51:33.484Z,24.87
2023-09-24T11:54:07.218Z,24.71
2023-09-24T11:56:40.443Z,24.84
2023-09-24T11:59:13.675Z,24.72
2023-09-24T12:01:48.161Z,24.67
2023-09-24T12:04:21.377Z,24.50
2023-09-24T12:06:55.088Z,24.56
2023-09-24T12:09:28.530Z,24.54
2023-09-24T12:12:04.112Z,24.79
2023-09-24T12:14:37.236Z,25.33
2023-09-24T12:17:11.736Z,25.29
2023-09-24T12:19:44.900Z,24.87
2023-09-24T12:22:19.121Z,25.28
2023-09-24T12:24:52.382Z,25.39
2023-09-24T12:27:26.959Z,25.42
2023-09-24T12:30:00.125Z,25.39
2023-09-24T12:32:35.765Z,25.31
2023-09-24T12:35:12.232Z,24.71
2023-09-24T12:37:45.379Z,25.16
2023-09-24T12:40:18.611Z,25.35
2023-09-24T12:42:52.045Z,25.39
2023-09-24T12:45:25.345Z,25.50
2023-09-24T12:48:00.016Z,25.25
2023-09-24T12:50:34.097Z,25.35
2023-09-24T12:53:07.173Z,25.07
2023-09-24T12:55:40.338Z,24.96
2023-09-24T12:58:14.112Z,25.09
2023-09-24T13:00:47.250Z,25.49
2023-09-24T13:03:21.872Z,25.72
2023-09-24T13:05:55.158Z,25.83
2023-09-24T13:08:28.298Z,26.30
2023-09-24T13:11:01.497Z,26.52
2023-09-24T13:13:34.734Z,26.54
2023-09-24T13:16:07.981Z,26.44
2023-09-24T13:18:44.613Z,25.93
2023-09-24T13:21:18.031Z,26.04
2023-09-24T13:23:51.322Z,26.28
2023-09-24T13:26:24.535Z,26.30
2023-09-24T13:28:58.049Z,25.87
2023-09-24T13:31:31.399Z,25.89
2023-09-24T13:34:06.239Z,25.62
2023-09-24T13:36:41.038Z,25.29
2023-09-24T13:39:14.806Z,25.67
2023-09-24T13:41:47.984Z,26.00
2023-09-24T13:44:21.151Z,25.45
2023-09-24T13:46:54.491Z,25.58
2023-09-24T13:49:29.686Z,25.90
2023-09-24T13:52:04.458Z,26.54
2023-09-24T13:54:37.989Z,26.49
2023-09-24T13:57:12.700Z,25.63
2023-09-24T13:59:45.906Z,25.74
2023-09-24T14:02:21.785Z,25.90
2023-09-24T14:04:56.269Z,25.73
2023-09-24T14:07:29.397Z,25.69
2023-09-24T14:10:19.974Z,26.04
2023-09-24T14:12:53.122Z,26.34
2023-09-24T14:15:26.275Z,26.48
2023-09-24T14:18:13.219Z,26.57
2023-09-24T14:20:48.760Z,26.43
2023-09-24T14:23:21.951Z,25.93
2023-09-24T14:25:55.206Z,26.20
2023-09-24T14:28:28.301Z,26.18
2023-09-24T14:31:05.143Z,25.96
2023-09-24T14:33:38.373Z,25.77
2023-09-24T14:36:12.881Z,25.96
2023-09-24T14:38:46.057Z,25.62
2023-09-24T14:41:19.191Z,25.70
2023-09-24T14:43:52.266Z,25.72
2023-09-24T14:46:25.457Z,25.60
2023-09-24T14:48:58.785Z,25.36
2023-09-24T14:51:35.952Z,25.73
2023-09-24T14:54:10.157Z,25.82
2023-09-24T14:56:43.486Z,26.00
2023-09-24T14:59:16.607Z,26.21
2023-09-24T15:01:49.841Z,26.41
2023-09-24T15:04:23.048Z,26.35
2023-09-24T15:06:57.537Z,26.55
2023-09-24T15:09:31.077Z,26.54
2023-09-24T15:12:06.358Z,26.23
2023-09-24T15:14:39.463Z,26.00
2023-09-24T15:17:12.708Z,26.13
2023-09-24T15:19:46.339Z,26.34
2023-09-24T15:22:20.739Z,26.58
2023-09-24T15:24:53.804Z,26.48
2023-09-24T15:27:28.242Z,25.87
2023-09-24T15:30:02.962Z,25.49
2023-09-24T15:32:36.098Z,25.77
2023-09-24T15:35:10.401Z,25.76
2023-09-24T15:37:44.748Z,24.79
2023-09-24T15:40:18.215Z,24.48
2023-09-24T15:42:51.348Z,24.67
2023-09-24T15:45:24.579Z,24.78
2023-09-24T15:47:58.115Z,24.79
2023-09-24T15:50:32.647Z,24.64
2023-09-24T15:53:07.104Z,24.64
2023-09-24T15:55:42.213Z,24.81
2023-09-24T15:58:16.885Z,24.95
2023-09-24T16:00:50.547Z,24.71
2023-09-24T16:03:23.650Z,24.51
2023-09-24T16:05:56.993Z,24.46
2023-09-24T16:08:32.446Z,24.54
2023-09-24T16:11:05.503Z,24.30
2023-09-24T16:13:41.019Z,24.14
2023-09-24T16:16:14.603Z,24.26
2023-09-24T16:18:47.752Z,23.97
2023-09-24T16:21:20.855Z,23.76
2023-09-24T16:23:55.504Z,23.72
2023-09-24T16:26:28.618Z,23.70
2023-09-24T16:29:01.723Z,23.51
2023-09-24T16:31:34.929Z,22.86
2023-09-24T16:34:11.231Z,22.33
2023-09-24T16:36:44.438Z,21.90
2023-09-24T16:39:21.308Z,21.49
2023-09-24T16:41:54.370Z,21.17
2023-09-24T16:44:29.663Z,21.04
2023-09-24T16:47:02.988Z,20.91
2023-09-24T16:49:38.746Z,20.72
2023-09-24T16:52:11.999Z,20.62
2023-09-24T16:54:47.636Z,20.52
2023-09-24T16:57:20.884Z,20.49
2023-09-24T16:59:54.324Z,20.77
2023-09-24T17:02:27.578Z,21.11
2023-09-24T17:05:00.916Z,21.14
2023-09-24T17:07:34.845Z,20.76
2023-09-24T17:10:11.943Z,20.47
2023-09-24T17:12:45.669Z,20.23
2023-09-24T17:15:19.490Z,20.00
2023-09-24T17:17:52.720Z,19.85
2023-09-24T17:20:26.558Z,19.69
2023-09-24T17:22:59.722Z,19.59
2023-09-24T17:25:34.405Z,19.32
2023-09-24T17:28:07.783Z,19.21
2023-09-24T17:30:41.090Z,19.10
2023-09-24T17:33:18.943Z,19.00
2023-09-24T17:35:52.368Z,18.96
2023-09-24T17:38:25.501Z,18.79
2023-09-24T17:41:04.250Z,18.63
2023-09-24T17:43:37.431Z,18.43
2023-09-24T17:46:17.195Z,18.28
2023-09-24T17:48:50.720Z,18.39
2023-09-24T17:51:23.918Z,18.18
2023-09-24T17:53:57.090Z,18.04
2023-09-24T17:56:31.624Z,18.00
2023-09-24T17:59:04.742Z,17.94
2023-09-24T18:01:37.923Z,17.95
2023-09-24T18:04:11.110Z,17.88
2023-09-24T18:06:44.303Z,17.81
2023-09-24T18:09:18.156Z,17.71
2023-09-24T18:11:55.818Z,17.40
2023-09-24T18:14:34.309Z,17.22
2023-09-24T18:17:07.995Z,17.00
2023-09-24T18:19:41.861Z,16.96
2023-09-24T18:22:14.986Z,16.83
2023-09-24T18:24:48.179Z,16.72
2023-09-24T18:27:22.807Z,16.47
2023-09-24T18:29:56.026Z,16.48
2023-09-24T18:32:29.192Z,16.41
2023-09-24T18:35:02.666Z,16.25
2023-09-24T18:37:35.806Z,16.08
2023-09-24T18:40:10.313Z,15.80
2023-09-24T18:42:45.410Z,15.86
2023-09-24T18:45:18.545Z,15.80
2023-09-24T18:47:51.954Z,15.63
2023-09-24T18:50:25.296Z,15.51
2023-09-24T18:53:00.683Z,15.49
2023-09-24T18:55:33.991Z,15.38
2023-09-24T18:58:08.667Z,15.38
2023-09-24T19:00:42.030Z,15.33
2023-09-24T19:03:16.047Z,15.29
2023-09-24T19:05:49.413Z,15.16
2023-09-24T19:08:23.442Z,15.03
2023-09-24T19:10:58.591Z,15.00
2023-09-24T19:13:33.110Z,15.10
2023-09-24T19:16:07.919Z,15.08
2023-09-24T19:18:41.369Z,14.85
2023-09-24T19:21:14.573Z,14.78
2023-09-24T19:23:47.915Z,14.77
2023-09-24T19:26:21.168Z,14.74
2023-09-24T19:28:55.733Z,14.75
2023-09-24T19:31:28.919Z,14.63
2023-09-24T19:34:02.260Z,14.54
2023-09-24T19:36:35.491Z,14.38
2023-09-24T19:39:09.215Z,14.23
2023-09-24T19:41:42.356Z,14.16
2023-09-24T19:44:20.130Z,14.10
2023-09-24T19:46:53.337Z,14.02
2023-09-24T19:49:28.755Z,14.06
2023-09-24T19:52:01.850Z,14.09
2023-09-24T19:54:35.113Z,14.06
2023-09-24T19:57:08.251Z,13.86
2023-09-24T19:59:42.812Z,13.87
2023-09-24T20:02:16.221Z,13.82
2023-09-24T20:04:49.458Z,13.67
2023-09-24T20:07:22.567Z,13.62
2023-09-24T20:09:58.314Z,13.63
2023-09-24T20:12:32.155Z,13.69
2023-09-24T20:15:09.383Z,13.86
2023-09-24T20:17:42.516Z,14.12
2023-09-24T20:20:16.441Z,14.40
2023-09-24T20:22:51.871Z,14.61
2023-09-24T20:25:32.786Z,14.71
2023-09-24T20:28:06.450Z,14.78
2023-09-24T20:30:40.954Z,14.89
2023-09-24T20:33:28.063Z,14.95
2023-09-24T20:36:03.405Z,14.98
2023-09-24T20:38:36.838Z,15.00
2023-09-24T20:41:14.860Z,15.03
2023-09-24T20:43:48.281Z,15.16
2023-09-24T20:46:24.525Z,15.16
2023-09-24T20:48:57.685Z,15.10
2023-09-24T20:51:31.118Z,15.10
2023-09-24T20:54:05.003Z,15.10
2023-09-24T20:56:40.320Z,15.12
2023-09-24T20:59:23.526Z,15.10
2023-09-24T21:02:04.638Z,15.15
2023-09-24T21:04:38.616Z,15.15
2023-09-24T21:07:13.528Z,15.08
2023-09-24T21:09:46.794Z,15.06
2023-09-24T21:12:22.641Z,15.08
2023-09-24T21:14:56.855Z,15.06
2023-09-24T21:17:31.387Z,14.96
2023-09-24T21:20:06.406Z,14.96
2023-09-24T21:22:39.578Z,14.98
2023-09-24T21:25:15.101Z,15.00
2023-09-24T21:27:48.268Z,14.98
2023-09-24T21:30:21.926Z,14.93
2023-09-24T21:32:56.628Z,14.99
2023-09-24T21:35:30.963Z,14.95
2023-09-24T21:38:04.211Z,14.96
2023-09-24T21:40:37.362Z,14.93
2023-09-24T21:43:10.964Z,14.84
2023-09-24T21:45:44.139Z,14.87
2023-09-24T21:48:18.719Z,14.85
2023-09-24T21:50:52.064Z,14.78
2023-09-24T21:53:25.242Z,14.77
2023-09-24T21:55:58.489Z,14.77
2023-09-24T21:58:31.629Z,14.72
2023-09-24T22:01:05.726Z,14.74
2023-09-24T22:03:40.249Z,14.61
2023-09-24T22:06:13.950Z,14.58
2023-09-24T22:08:47.350Z,14.55
2023-09-24T22:11:20.638Z,14.55
2023-09-24T22:13:53.851Z,14.60
2023-09-24T22:16:26.971Z,14.49
2023-09-24T22:19:01.505Z,14.42
2023-09-24T22:21:35.163Z,14.38
2023-09-24T22:24:09.302Z,14.37
2023-09-24T22:26:42.481Z,14.38
2023-09-24T22:29:15.640Z,14.33
2023-09-24T22:31:50.125Z,14.27
2023-09-24T22:34:24.759Z,14.23
2023-09-24T22:36:57.911Z,14.20
2023-09-24T22:39:31.112Z,14.20
2023-09-24T22:42:04.440Z,14.10
2023-09-24T22:44:37.698Z,14.03
2023-09-24T22:47:10.839Z,13.94
2023-09-24T22:49:45.432Z,13.90
2023-09-24T22:52:18.698Z,13.83
2023-09-24T22:54:52.590Z,13.70
2023-09-24T22:57:28.346Z,13.58
2023-09-24T23:00:02.070Z,13.51
2023-09-24T23:02:35.313Z,13.39
2023-09-24T23:05:10.581Z,13.19
2023-09-24T23:07:46.375Z,12.89
2023-09-24T23:10:20.254Z,12.61
2023-09-24T23:12:53.415Z,12.44
2023-09-24T23:15:27.190Z,12.26
2023-09-24T23:18:00.548Z,12.26
2023-09-24T23:20:35.219Z,12.26
2023-09-24T23:23:08.341Z,12.23
2023-09-24T23:25:44.931Z,12.09
2023-09-24T23:28:18.374Z,12.12
2023-09-24T23:30:53.730Z,12.13
2023-09-24T23:33:27.196Z,11.95
2023-09-24T23:36:01.775Z,11.90
2023-09-24T23:38:35.052Z,11.87
2023-09-24T23:41:08.186Z,11.81
2023-09-24T23:43:41.330Z,11.65
2023-09-24T23:46:14.479Z,11.50
2023-09-24T23:48:47.882Z,11.41
2023-09-24T23:51:22.561Z,11.41
2023-09-24T23:53:55.869Z,11.44
2023-09-24T23:56:29.085Z,11.48
2023-09-24T23:59:02.291Z,11.48
